»·PEaware :: QXE2174 KPDX-KSEA

QXE2174 :: KPDX-KSEA

FLIGHT INFORMATION

Flight Status: Arrived
Operator:
Horizon Air
More flights by this operator :: More flights under this callsign
Pilot: Anonymous 3903 (3903)
Aircraft: DEHAVILLAND DASH 8 400
(DH8D)
More flights by this aircraft type
Origin: KPDX Portland Intl
United States
Destination: KSEA Seattle-Tacoma Intl
United States
More flights between these airports :: More routes between these airports
Route: ++PTLD1+ COUGA KRIEG HAWKZ7
File this flight plan on PilotEdge
Remarks:
Altitude:
(Current/Filed)
14,000ft
Speed:
(Current/Filed)
308kts
Departed: 11-Feb-19 07:36 PM
Arrived: 11-Feb-19 08:12 PM
Distance/Time
Traveled:
112nm/0:36
Distance/Time
To Go:
Arrived

Flight Plot

Page will automatically refresh every two minutes.

Flight plan parsing failed; only flown route is shown


Map Options




Map Legend


Flown Route
Filed Route
Departure Airport
Arrival Airport
Navaid (VOR, NDB)
Fix

Horizontal Profiles

Position Reports

Time Latitude Longitude Heading Altitude Ground
Speed
11-Feb-19 18:46 45.586226 -122.592513 82 37ft 0kts
11-Feb-19 18:47 45.586226 -122.592513 82 37ft 0kts
11-Feb-19 18:48 45.586226 -122.592513 82 37ft 0kts
11-Feb-19 18:49 45.586226 -122.592513 82 37ft 0kts
11-Feb-19 18:50 45.586226 -122.592513 82 37ft 0kts
11-Feb-19 18:51 45.586226 -122.592513 82 37ft 0kts
11-Feb-19 18:52 45.586226 -122.592513 82 37ft 0kts
11-Feb-19 18:53 45.586226 -122.592513 82 37ft 0kts
11-Feb-19 18:54 45.586226 -122.592513 82 37ft 0kts
11-Feb-19 18:55 45.586226 -122.592513 82 37ft 0kts
11-Feb-19 18:56 45.586226 -122.592513 82 37ft 0kts
11-Feb-19 18:57 45.586226 -122.592513 82 37ft 0kts
11-Feb-19 18:58 45.586226 -122.592513 82 37ft 0kts
11-Feb-19 18:59 45.586226 -122.592513 82 37ft 0kts
11-Feb-19 19:00 45.586226 -122.592513 82 37ft 0kts
11-Feb-19 19:01 45.586226 -122.592513 82 37ft 0kts
11-Feb-19 19:02 45.586226 -122.592513 82 37ft 0kts
11-Feb-19 19:03 45.586226 -122.592513 82 37ft 0kts
11-Feb-19 19:04 45.586226 -122.592513 82 37ft 0kts
11-Feb-19 19:05 45.586226 -122.592513 82 37ft 0kts
11-Feb-19 19:06 45.586226 -122.592513 82 37ft 0kts
11-Feb-19 19:07 45.586226 -122.592513 82 37ft 0kts
11-Feb-19 19:08 45.586226 -122.592513 82 37ft 0kts
11-Feb-19 19:09 45.586226 -122.592513 82 37ft 0kts
11-Feb-19 19:10 45.586226 -122.592513 82 37ft 0kts
11-Feb-19 19:11 45.586226 -122.592513 82 37ft 0kts
11-Feb-19 19:12 45.586226 -122.592513 82 37ft 0kts
11-Feb-19 19:13 45.586226 -122.592513 82 37ft 0kts
11-Feb-19 19:14 45.586226 -122.592513 82 37ft 0kts
11-Feb-19 19:15 45.586226 -122.592513 82 37ft 0kts
11-Feb-19 19:17 45.586226 -122.592513 82 37ft 0kts
11-Feb-19 19:18 45.586226 -122.592513 82 37ft 0kts
11-Feb-19 19:19 45.586226 -122.592513 82 37ft 0kts
11-Feb-19 19:20 45.586226 -122.592513 82 37ft 0kts
11-Feb-19 19:21 45.586226 -122.592513 82 37ft 0kts
11-Feb-19 19:22 45.586226 -122.592513 82 37ft 0kts
11-Feb-19 19:23 45.586226 -122.592513 82 37ft 0kts
11-Feb-19 19:24 45.586226 -122.592513 82 37ft 0kts
11-Feb-19 19:25 45.586226 -122.592513 82 37ft 0kts
11-Feb-19 19:26 45.586209 -122.592715 82 37ft 0kts
11-Feb-19 19:27 45.586190 -122.592675 117 37ft 2kts
11-Feb-19 19:28 45.585941 -122.592614 179 37ft 0kts
11-Feb-19 19:29 45.585141 -122.591850 158 37ft 3kts
11-Feb-19 19:30 45.586421 -122.595830 303 37ft 20kts
11-Feb-19 19:31 45.587980 -122.599840 298 37ft 7kts
11-Feb-19 19:31 45.589182 -122.602959 297 37ft 9kts
11-Feb-19 19:33 45.592862 -122.610761 298 37ft 30kts
11-Feb-19 19:34 45.595213 -122.616784 299 37ft 10kts
11-Feb-19 19:35 45.596020 -122.620556 215 37ft 11kts
11-Feb-19 19:35 45.594038 -122.618602 120 37ft 50kts
11-Feb-19 19:37 45.576149 -122.564706 118 1974ft 152kts
11-Feb-19 19:38 45.566217 -122.499100 62 4161ft 207kts
11-Feb-19 19:38 45.612784 -122.485444 338 5956ft 234kts
11-Feb-19 19:39 45.680643 -122.511984 334 8066ft 263kts
11-Feb-19 19:40 45.752272 -122.540031 332 10014ft 269kts
11-Feb-19 19:41 45.824249 -122.568429 331 11647ft 268kts
11-Feb-19 19:42 45.895885 -122.597207 331 13073ft 269kts
11-Feb-19 19:43 45.969273 -122.627536 332 13925ft 288kts
11-Feb-19 19:44 46.050655 -122.661458 334 13963ft 320kts
11-Feb-19 19:45 46.140841 -122.688526 344 13980ft 343kts
11-Feb-19 19:46 46.236249 -122.705499 344 14057ft 348kts
11-Feb-19 19:47 46.332900 -122.723728 348 14052ft 356kts
11-Feb-19 19:48 46.432969 -122.726616 351 14040ft 364kts
11-Feb-19 19:49 46.534287 -122.729722 351 14024ft 367kts
11-Feb-19 19:50 46.636600 -122.733609 351 14014ft 370kts
11-Feb-19 19:51 46.739071 -122.737378 351 14006ft 365kts
11-Feb-19 19:52 46.833611 -122.685777 39 14001ft 380kts
11-Feb-19 19:53 46.911623 -122.589669 35 13996ft 354kts
11-Feb-19 19:54 46.997504 -122.534041 8 13994ft 334kts
11-Feb-19 19:55 47.086454 -122.498656 6 13992ft 330kts
11-Feb-19 19:56 47.178632 -122.481989 0 12027ft 327kts
11-Feb-19 19:57 47.264427 -122.469090 0 10166ft 290kts
11-Feb-19 19:58 47.344314 -122.456865 1 9606ft 292kts
11-Feb-19 19:59 47.424139 -122.454648 355 7863ft 272kts
11-Feb-19 20:00 47.495688 -122.456821 354 6253ft 245kts
11-Feb-19 20:01 47.561990 -122.460936 354 4658ft 234kts
11-Feb-19 20:02 47.620969 -122.462411 23 3882ft 189kts
11-Feb-19 20:03 47.674019 -122.428355 26 3043ft 210kts
11-Feb-19 20:04 47.685499 -122.360369 106 3052ft 180kts
11-Feb-19 20:05 47.650034 -122.313879 168 3032ft 199kts
11-Feb-19 20:06 47.597614 -122.307536 174 2946ft 159kts
11-Feb-19 20:07 47.559148 -122.307178 175 2368ft 126kts
11-Feb-19 20:08 47.520904 -122.307137 178 1525ft 133kts
11-Feb-19 20:09 47.487475 -122.307342 178 1008ft 121kts
11-Feb-19 20:10 47.455826 -122.307831 179 440ft 74kts
11-Feb-19 20:11 47.443646 -122.307759 140 440ft 8kts
11-Feb-19 20:12 47.443201 -122.304630 78 440ft 9kts
11-Feb-19 20:13 47.443677 -122.304370 0 440ft 0kts
11-Feb-19 20:14 47.443677 -122.304370 0 440ft 0kts
11-Feb-19 20:15 47.443677 -122.304370 0 440ft 0kts
11-Feb-19 20:16 47.443677 -122.304370 0 440ft 0kts
11-Feb-19 20:17 47.443677 -122.304370 0 440ft 0kts
11-Feb-19 20:18 47.443677 -122.304370 0 440ft 0kts

Navigation Log

Ident Type
Flight plan parsing failed, navigation log unavailable